createdAt,value
2022-08-17T00:00:42.959Z,100882.53
2022-08-17T00:03:22.433Z,100878.19
2022-08-17T00:05:54.781Z,100885.56
2022-08-17T00:08:26.955Z,100881.84
2022-08-17T00:10:56.930Z,100887.53
2022-08-17T00:13:34.435Z,100886.16
2022-08-17T00:16:08.589Z,100893.09
2022-08-17T00:18:56.774Z,100893.38
2022-08-17T00:21:36.123Z,100896.38
2022-08-17T00:24:18.636Z,100896.56
2022-08-17T00:26:48.108Z,100894.81
2022-08-17T00:29:19.938Z,100897.47
2022-08-17T00:31:51.750Z,100895.75
2022-08-17T00:34:20.812Z,100896.50
2022-08-17T00:36:49.876Z,100892.88
2022-08-17T00:39:18.939Z,100896.50
2022-08-17T00:41:48.045Z,100889.03
2022-08-17T00:44:17.187Z,100884.41
2022-08-17T00:46:47.899Z,100888.41
2022-08-17T00:49:19.560Z,100892.66
2022-08-17T00:51:53.032Z,100893.19
2022-08-17T00:54:26.285Z,100894.22
2022-08-17T00:57:00.634Z,100896.72
2022-08-17T00:59:32.735Z,100897.78
2022-08-17T01:02:02.506Z,100900.91
2022-08-17T01:04:34.057Z,100902.63
2022-08-17T01:07:04.610Z,100905.69
2022-08-17T01:09:34.643Z,100904.66
2022-08-17T01:12:06.576Z,100905.19
2022-08-17T01:14:38.077Z,100901.53
2022-08-17T01:17:08.427Z,100903.00
2022-08-17T01:19:41.859Z,100896.31
2022-08-17T01:22:21.243Z,100907.28
2022-08-17T01:24:54.080Z,100914.09
2022-08-17T01:27:24.422Z,100910.03
2022-08-17T01:29:58.553Z,100900.75
2022-08-17T01:32:30.296Z,100900.25
2022-08-17T01:35:00.639Z,100898.97
2022-08-17T01:37:33.391Z,100903.63
2022-08-17T01:40:07.358Z,100910.63
2022-08-17T01:42:42.848Z,100907.84
2022-08-17T01:45:16.691Z,100910.16
2022-08-17T01:47:45.845Z,100915.78
2022-08-17T01:50:18.134Z,100917.22
2022-08-17T01:52:51.365Z,100914.56
2022-08-17T01:55:27.527Z,100909.53
2022-08-17T01:57:56.806Z,100916.38
2022-08-17T02:00:26.223Z,100921.22
2022-08-17T02:03:15.767Z,100919.09
2022-08-17T02:05:45.045Z,100911.84
2022-08-17T02:08:19.906Z,100914.50
2022-08-17T02:10:50.428Z,100917.97
2022-08-17T02:13:21.237Z,100908.50
2022-08-17T02:15:50.560Z,100911.97
2022-08-17T02:18:19.693Z,100905.16
2022-08-17T02:20:48.728Z,100911.31
2022-08-17T02:23:19.870Z,100909.19
2022-08-17T02:25:50.093Z,100918.16
2022-08-17T02:28:19.703Z,100919.00
2022-08-17T02:30:59.553Z,100917.34
2022-08-17T02:33:42.678Z,100912.38
2022-08-17T02:36:13.536Z,100916.84
2022-08-17T02:38:44.454Z,100910.69
2022-08-17T02:41:13.821Z,100913.31
2022-08-17T02:43:43.182Z,100919.94
2022-08-17T02:46:12.919Z,100906.81
2022-08-17T02:48:42.001Z,100912.78
2022-08-17T02:51:11.166Z,100914.16
2022-08-17T02:53:40.667Z,100911.19
2022-08-17T02:56:11.124Z,100903.72
2022-08-17T02:58:40.352Z,100907.06
2022-08-17T03:01:12.635Z,100901.63
2022-08-17T03:03:42.648Z,100905.41
2022-08-17T03:06:12.022Z,100908.75
2022-08-17T03:08:41.104Z,100902.91
2022-08-17T03:11:11.970Z,100903.56
2022-08-17T03:13:41.349Z,100904.06
2022-08-17T03:16:10.657Z,100914.69
2022-08-17T03:18:39.754Z,100907.91
2022-08-17T03:21:09.558Z,100906.25
2022-08-17T03:23:41.061Z,100904.59
2022-08-17T03:26:15.557Z,100906.72
2022-08-17T03:28:45.449Z,100898.78
2022-08-17T03:31:14.643Z,100902.47
2022-08-17T03:33:43.943Z,100910.91
2022-08-17T03:36:13.070Z,100912.22
2022-08-17T03:38:42.114Z,100915.50
2022-08-17T03:41:13.925Z,100922.31
2022-08-17T03:43:43.089Z,100928.94
2022-08-17T03:46:34.497Z,100918.34
2022-08-17T03:49:23.589Z,100917.00
2022-08-17T03:52:10.534Z,100919.66
2022-08-17T03:54:57.919Z,100915.34
2022-08-17T03:57:29.136Z,100915.19
2022-08-17T03:59:58.466Z,100917.81
2022-08-17T04:02:31.605Z,100916.16
2022-08-17T04:05:01.059Z,100914.19
2022-08-17T04:07:31.797Z,100919.78
2022-08-17T04:10:01.399Z,100919.66
2022-08-17T04:12:45.956Z,100920.97
2022-08-17T04:15:15.379Z,100919.66
2022-08-17T04:17:45.799Z,100917.34
2022-08-17T04:20:17.346Z,100923.28
2022-08-17T04:22:58.642Z,100924.47
2022-08-17T04:25:28.279Z,100917.34
2022-08-17T04:27:59.406Z,100913.69
2022-08-17T04:30:30.277Z,100918.16
2022-08-17T04:33:06.143Z,100932.72
2022-08-17T04:35:38.475Z,100933.22
2022-08-17T04:38:09.177Z,100931.75
2022-08-17T04:40:56.055Z,100938.06
2022-08-17T04:43:28.761Z,100939.69
2022-08-17T04:46:00.623Z,100941.88
2022-08-17T04:48:36.096Z,100951.44
2022-08-17T04:51:09.939Z,100942.81
2022-08-17T04:53:40.487Z,100938.84
2022-08-17T04:56:16.027Z,100948.50
2022-08-17T04:58:49.860Z,100953.44
2022-08-17T05:01:24.009Z,100952.81
2022-08-17T05:03:54.302Z,100947.31
2022-08-17T05:06:24.209Z,100951.28
2022-08-17T05:08:54.138Z,100947.31
2022-08-17T05:11:25.502Z,100948.97
2022-08-17T05:13:57.132Z,100951.59
2022-08-17T05:16:28.403Z,100943.94
2022-08-17T05:18:58.558Z,100948.91
2022-08-17T05:21:29.702Z,100953.81
2022-08-17T05:23:59.525Z,100951.41
2022-08-17T05:26:29.473Z,100954.88
2022-08-17T05:29:02.725Z,100952.00
2022-08-17T05:31:32.637Z,100950.56
2022-08-17T05:34:02.214Z,100958.75
2022-08-17T05:36:41.707Z,100959.06
2022-08-17T05:39:17.414Z,100957.41
2022-08-17T05:41:51.528Z,100955.81
2022-08-17T05:44:23.947Z,100950.28
2022-08-17T05:46:54.514Z,100953.97
2022-08-17T05:49:28.808Z,100955.59
2022-08-17T05:52:24.658Z,100955.75
2022-08-17T05:55:06.704Z,100953.56
2022-08-17T05:57:56.116Z,100957.25
2022-08-17T06:00:31.050Z,100943.38
2022-08-17T06:03:25.571Z,100958.25
2022-08-17T06:06:10.619Z,100970.84
2022-08-17T06:08:48.836Z,100965.94
2022-08-17T06:11:30.932Z,100958.91
2022-08-17T06:14:25.947Z,100973.06
2022-08-17T06:17:01.882Z,100970.41
2022-08-17T06:19:39.494Z,100967.47
2022-08-17T06:22:12.453Z,100969.69
2022-08-17T06:24:46.985Z,100966.00
2022-08-17T06:27:24.384Z,100959.34
2022-08-17T06:29:58.554Z,100959.31
2022-08-17T06:32:29.522Z,100968.66
2022-08-17T06:35:01.208Z,100976.53
2022-08-17T06:37:48.635Z,100978.16
2022-08-17T06:40:37.495Z,100969.97
2022-08-17T06:43:21.418Z,100979.00
2022-08-17T06:45:58.725Z,100963.38
2022-08-17T06:48:38.727Z,100967.66
2022-08-17T06:51:15.771Z,100968.50
2022-08-17T06:53:49.534Z,100971.19
2022-08-17T06:56:53.781Z,100980.81
2022-08-17T06:59:22.306Z,100976.56
2022-08-17T07:01:52.694Z,100978.00
2022-08-17T07:04:27.152Z,100974.09
2022-08-17T07:07:01.618Z,100967.13
2022-08-17T07:09:36.862Z,100976.34
2022-08-17T07:12:16.113Z,100972.41
2022-08-17T07:14:51.463Z,100974.72
2022-08-17T07:17:22.399Z,100980.88
2022-08-17T07:20:17.718Z,100976.00
2022-08-17T07:23:00.069Z,100978.66
2022-08-17T07:25:31.218Z,100982.84
2022-08-17T07:28:05.965Z,100982.56
2022-08-17T07:30:45.589Z,100980.16
2022-08-17T07:33:20.220Z,100979.44
2022-08-17T07:35:51.236Z,100986.31
2022-08-17T07:38:24.842Z,100989.16
2022-08-17T07:41:05.098Z,100991.06
2022-08-17T07:43:36.239Z,100985.25
2022-08-17T07:46:33.242Z,100977.91
2022-08-17T07:49:19.095Z,100972.09
2022-08-17T07:52:24.212Z,100977.31
2022-08-17T07:54:51.841Z,100969.56
2022-08-17T07:57:33.616Z,100977.53
2022-08-17T08:00:19.417Z,100969.03
2022-08-17T08:03:14.895Z,100974.91
2022-08-17T08:05:53.652Z,100980.28
2022-08-17T08:08:44.246Z,100987.84
2022-08-17T08:11:16.178Z,100989.41
2022-08-17T08:13:46.807Z,100987.78
2022-08-17T08:16:29.149Z,100979.31
2022-08-17T08:19:00.773Z,100985.66
2022-08-17T08:21:37.720Z,100983.00
2022-08-17T08:24:38.510Z,100982.16
2022-08-17T08:27:18.347Z,100986.69
2022-08-17T08:29:53.903Z,100989.44
2022-08-17T08:32:37.188Z,100982.84
2022-08-17T08:35:11.358Z,100992.03
2022-08-17T08:37:52.776Z,100997.34
2022-08-17T08:40:38.307Z,100996.88
2022-08-17T08:43:22.000Z,100988.50
2022-08-17T08:45:58.635Z,101001.53
2022-08-17T08:49:00.871Z,101002.78
2022-08-17T08:51:46.942Z,101005.88
2022-08-17T08:54:33.493Z,101002.13
2022-08-17T08:57:29.054Z,101005.47
2022-08-17T09:00:12.783Z,101001.06
2022-08-17T09:03:07.481Z,100998.56
2022-08-17T09:06:00.335Z,101001.59
2022-08-17T09:08:36.193Z,101002.19
2022-08-17T09:11:12.499Z,101007.00
2022-08-17T09:13:54.697Z,101001.47
2022-08-17T09:16:29.997Z,101000.44
2022-08-17T09:19:06.929Z,100996.59
2022-08-17T09:21:48.360Z,100998.16
2022-08-17T09:24:26.164Z,100993.84
2022-08-17T09:27:01.891Z,100986.25
2022-08-17T09:29:36.905Z,100991.94
2022-08-17T09:32:17.607Z,100996.91
2022-08-17T09:34:52.728Z,100998.91
2022-08-17T09:37:28.569Z,100999.13
2022-08-17T09:40:09.443Z,101000.38
2022-08-17T09:42:50.993Z,101007.03
2022-08-17T09:45:32.965Z,100990.16
2022-08-17T09:48:09.654Z,100996.78
2022-08-17T09:51:03.894Z,100996.56
2022-08-17T09:53:34.058Z,100986.97
2022-08-17T09:56:15.089Z,100993.88
2022-08-17T09:59:03.353Z,100988.72
2022-08-17T10:01:39.745Z,100989.66
2022-08-17T10:04:34.789Z,100992.69
2022-08-17T10:07:08.401Z,100990.72
2022-08-17T10:09:57.621Z,100989.97
2022-08-17T10:12:36.602Z,100985.56
2022-08-17T10:15:22.414Z,100984.19
2022-08-17T10:18:09.693Z,100975.31
2022-08-17T10:20:47.535Z,100973.16
2022-08-17T10:23:41.191Z,100978.94
2022-08-17T10:26:14.501Z,100979.16
2022-08-17T10:28:50.693Z,100982.09
2022-08-17T10:31:35.673Z,100985.88
2022-08-17T10:34:41.119Z,100982.09
2022-08-17T10:37:28.324Z,100978.16
2022-08-17T10:40:13.328Z,100974.44
2022-08-17T10:42:48.961Z,100972.72
2022-08-17T10:45:23.423Z,100971.78
2022-08-17T10:48:05.687Z,100970.59
2022-08-17T10:50:58.551Z,100964.16
2022-08-17T10:53:53.597Z,100966.66
2022-08-17T10:56:26.096Z,100967.97
2022-08-17T10:58:57.932Z,100965.84
2022-08-17T11:01:58.237Z,100963.75
2022-08-17T11:04:47.762Z,100964.66
2022-08-17T11:07:31.915Z,100967.28
2022-08-17T11:10:23.748Z,100971.16
2022-08-17T11:13:01.887Z,100954.94
2022-08-17T11:15:50.786Z,100963.13
2022-08-17T11:18:42.800Z,100960.84
2022-08-17T11:21:39.221Z,100967.25
2022-08-17T11:24:20.366Z,100963.66
2022-08-17T11:27:05.997Z,100961.81
2022-08-17T11:29:51.977Z,100960.19
2022-08-17T11:32:47.120Z,100967.34
2022-08-17T11:35:35.193Z,100962.28
2022-08-17T11:38:17.814Z,100953.56
2022-08-17T11:41:14.365Z,100949.72
2022-08-17T11:44:05.917Z,100948.25
2022-08-17T11:47:08.053Z,100949.59
2022-08-17T11:50:15.090Z,100954.69
2022-08-17T11:52:46.955Z,100956.06
2022-08-17T11:55:50.619Z,100948.00
2022-08-17T11:58:40.999Z,100947.81
2022-08-17T12:01:13.603Z,100947.72
2022-08-17T12:03:55.935Z,100946.28
2022-08-17T12:06:49.263Z,100954.50
2022-08-17T12:09:22.002Z,100949.66
2022-08-17T12:12:12.800Z,100954.78
2022-08-17T12:15:09.589Z,100947.34
2022-08-17T12:17:42.689Z,100955.38
2022-08-17T12:20:17.133Z,100944.34
2022-08-17T12:22:56.431Z,100938.09
2022-08-17T12:25:33.039Z,100940.50
2022-08-17T12:28:06.895Z,100943.03
2022-08-17T12:30:38.662Z,100941.84
2022-08-17T12:33:27.936Z,100939.41
2022-08-17T12:36:02.859Z,100941.63
2022-08-17T12:38:34.498Z,100933.84
2022-08-17T12:41:26.388Z,100946.22
2022-08-17T12:44:01.620Z,100944.09
2022-08-17T12:46:35.882Z,100946.06
2022-08-17T12:49:23.641Z,100941.22
2022-08-17T12:52:00.783Z,100939.06
2022-08-17T12:54:37.686Z,100951.19
2022-08-17T12:57:12.458Z,100946.41
2022-08-17T12:59:48.516Z,100944.22
2022-08-17T13:02:33.700Z,100946.50
2022-08-17T13:05:03.323Z,100946.16
2022-08-17T13:07:37.288Z,100936.91
2022-08-17T13:10:06.956Z,100942.59
2022-08-17T13:12:37.110Z,100937.66
2022-08-17T13:15:07.743Z,100934.06
2022-08-17T13:17:39.093Z,100940.66
2022-08-17T13:20:15.990Z,100934.94
2022-08-17T13:22:53.166Z,100937.00
2022-08-17T13:25:24.035Z,100931.13
2022-08-17T13:27:55.074Z,100930.25
2022-08-17T13:30:29.111Z,100931.06
2022-08-17T13:33:00.082Z,100925.78
2022-08-17T13:35:47.104Z,100914.03
2022-08-17T13:38:40.993Z,100916.34
2022-08-17T13:41:30.126Z,100912.66
2022-08-17T13:43:59.211Z,100908.00
2022-08-17T13:46:32.148Z,100908.66
2022-08-17T13:49:05.667Z,100906.75
2022-08-17T13:51:42.471Z,100903.34
2022-08-17T13:54:26.103Z,100908.25
2022-08-17T13:57:01.463Z,100906.75
2022-08-17T13:59:54.262Z,100908.31
2022-08-17T14:02:28.675Z,100904.56
2022-08-17T14:05:00.816Z,100901.31
2022-08-17T14:07:33.772Z,100905.06
2022-08-17T14:10:10.273Z,100906.72
2022-08-17T14:12:41.525Z,100908.69
2022-08-17T14:15:12.803Z,100903.69
2022-08-17T14:17:42.095Z,100899.63
2022-08-17T14:20:14.547Z,100903.00
2022-08-17T14:22:48.247Z,100904.69
2022-08-17T14:25:20.800Z,100901.94
2022-08-17T14:27:53.375Z,100903.19
2022-08-17T14:30:29.969Z,100908.75
2022-08-17T14:33:02.039Z,100900.00
2022-08-17T14:35:32.770Z,100901.16
2022-08-17T14:38:03.074Z,100904.16
2022-08-17T14:40:33.343Z,100885.38
2022-08-17T14:43:02.480Z,100892.06
2022-08-17T14:45:33.181Z,100885.00
2022-08-17T14:48:05.618Z,100879.94
2022-08-17T14:50:38.890Z,100876.53
2022-08-17T14:53:09.878Z,100884.31
2022-08-17T14:55:40.733Z,100893.16
2022-08-17T14:58:10.266Z,100886.69
2022-08-17T15:00:40.836Z,100886.16
2022-08-17T15:03:11.576Z,100879.75
2022-08-17T15:05:44.113Z,100881.16
2022-08-17T15:08:13.340Z,100883.84
2022-08-17T15:10:42.610Z,100880.88
2022-08-17T15:13:19.169Z,100876.63
2022-08-17T15:15:49.309Z,100868.19
2022-08-17T15:18:18.966Z,100870.38
2022-08-17T15:20:50.433Z,100858.03
2022-08-17T15:23:23.415Z,100867.72
2022-08-17T15:25:54.728Z,100862.31
2022-08-17T15:28:25.029Z,100862.66
2022-08-17T15:30:56.069Z,100862.59
2022-08-17T15:33:30.577Z,100859.75
2022-08-17T15:36:06.822Z,100861.06
2022-08-17T15:38:44.497Z,100856.03
2022-08-17T15:41:18.614Z,100860.03
2022-08-17T15:43:51.478Z,100864.88
2022-08-17T15:46:23.570Z,100858.78
2022-08-17T15:48:59.884Z,100857.22
2022-08-17T15:51:34.348Z,100852.44
2022-08-17T15:54:22.889Z,100846.34
2022-08-17T15:56:54.159Z,100853.31
2022-08-17T15:59:24.955Z,100849.44
2022-08-17T16:03:15.145Z,100851.28
2022-08-17T16:04:45.638Z,100850.94
2022-08-17T16:07:26.425Z,100852.47
2022-08-17T16:09:55.978Z,100845.44
2022-08-17T16:12:25.272Z,100852.59
2022-08-17T16:14:56.779Z,100841.94
2022-08-17T16:17:39.583Z,100849.25
2022-08-17T16:20:20.317Z,100843.03
2022-08-17T16:22:54.261Z,100849.06
2022-08-17T16:25:38.801Z,100836.03
2022-08-17T16:28:20.833Z,100831.50
2022-08-17T16:30:51.802Z,100841.75
2022-08-17T16:33:21.425Z,100840.28
2022-08-17T16:35:52.444Z,100836.75
2022-08-17T16:38:24.896Z,100824.22
2022-08-17T16:41:00.025Z,100830.56
2022-08-17T16:43:30.143Z,100821.66
2022-08-17T16:46:00.753Z,100822.59
2022-08-17T16:48:30.235Z,100821.06
2022-08-17T16:51:04.019Z,100809.50
2022-08-17T16:53:35.213Z,100821.75
2022-08-17T16:56:07.596Z,100819.63
2022-08-17T16:58:40.964Z,100818.94
2022-08-17T17:01:11.526Z,100818.69
2022-08-17T17:03:44.831Z,100819.16
2022-08-17T17:06:21.146Z,100820.13
2022-08-17T17:08:58.487Z,100811.22
2022-08-17T17:11:33.615Z,100811.88
2022-08-17T17:14:10.470Z,100814.59
2022-08-17T17:16:45.996Z,100819.28
2022-08-17T17:19:27.727Z,100829.00
2022-08-17T17:22:16.304Z,100833.41
2022-08-17T17:24:56.732Z,100833.41
2022-08-17T17:27:34.468Z,100832.22
2022-08-17T17:30:12.954Z,100823.66
2022-08-17T17:32:49.708Z,100826.06
2022-08-17T17:35:25.357Z,100823.59
2022-08-17T17:37:58.356Z,100833.69
2022-08-17T17:40:37.215Z,100829.16
2022-08-17T17:43:34.813Z,100835.03
2022-08-17T17:46:26.386Z,100837.00
2022-08-17T17:48:51.008Z,100842.28
2022-08-17T17:52:09.202Z,100849.34
2022-08-17T17:54:32.501Z,100854.41
2022-08-17T17:57:09.834Z,100858.13
2022-08-17T17:59:46.254Z,100860.88
2022-08-17T18:02:51.767Z,100865.13
2022-08-17T18:06:00.579Z,100861.63
2022-08-17T18:08:45.195Z,100854.66
2022-08-17T18:11:35.293Z,100842.78
2022-08-17T18:14:18.817Z,100833.69
2022-08-17T18:16:55.048Z,100833.97
2022-08-17T18:19:29.827Z,100825.75
2022-08-17T18:22:08.295Z,100826.88
2022-08-17T18:24:47.550Z,100826.28
2022-08-17T18:27:28.933Z,100825.06
2022-08-17T18:30:08.615Z,100830.06
2022-08-17T18:32:43.784Z,100844.06
2022-08-17T18:35:35.191Z,100852.31
2022-08-17T18:38:29.767Z,100864.75
2022-08-17T18:41:05.348Z,100870.75
2022-08-17T18:43:52.670Z,100897.28
2022-08-17T18:46:51.057Z,100954.84
2022-08-17T18:49:33.689Z,100954.47
2022-08-17T18:52:18.998Z,100968.88
2022-08-17T18:55:13.453Z,100971.31
2022-08-17T18:57:45.297Z,100976.44
2022-08-17T19:00:18.109Z,100984.78
2022-08-17T19:02:56.289Z,100988.47
2022-08-17T19:05:34.497Z,101016.75
2022-08-17T19:08:22.647Z,101047.78
2022-08-17T19:11:06.363Z,101054.91
2022-08-17T19:13:40.984Z,101066.69
2022-08-17T19:16:18.981Z,101058.75
2022-08-17T19:18:57.898Z,101040.31
2022-08-17T19:21:33.883Z,101018.25
2022-08-17T19:24:10.113Z,101000.06
2022-08-17T19:26:54.854Z,101000.28
2022-08-17T19:29:30.998Z,100996.97
2022-08-17T19:32:00.641Z,100982.66
2022-08-17T19:34:35.513Z,100966.06
2022-08-17T19:37:13.197Z,100976.88
2022-08-17T19:39:49.838Z,100969.63
2022-08-17T19:42:32.974Z,100973.59
2022-08-17T19:45:08.119Z,100977.16
2022-08-17T19:47:55.063Z,100963.47
2022-08-17T19:50:38.431Z,100975.59
2022-08-17T19:53:18.963Z,100967.78
2022-08-17T19:55:59.003Z,100962.38
2022-08-17T19:58:49.430Z,100948.25
2022-08-17T20:01:42.503Z,100933.66
2022-08-17T20:04:17.272Z,100937.72
2022-08-17T20:06:50.367Z,100926.69
2022-08-17T20:09:33.442Z,100925.50
2022-08-17T20:12:08.718Z,100925.59
2022-08-17T20:14:53.457Z,100928.06
2022-08-17T20:17:31.469Z,100925.59
2022-08-17T20:20:08.163Z,100912.47
2022-08-17T20:22:55.285Z,100919.63
2022-08-17T20:25:33.497Z,100912.84
2022-08-17T20:28:16.937Z,100916.69
2022-08-17T20:30:46.513Z,100908.16
2022-08-17T20:33:27.221Z,100904.03
2022-08-17T20:36:12.797Z,100906.31
2022-08-17T20:38:49.463Z,100893.91
2022-08-17T20:41:36.963Z,100907.97
2022-08-17T20:44:23.502Z,100902.06
2022-08-17T20:47:06.406Z,100900.56
2022-08-17T20:49:52.066Z,100895.41
2022-08-17T20:52:50.746Z,100892.63
2022-08-17T20:55:53.497Z,100897.34
2022-08-17T20:58:47.398Z,100888.88
2022-08-17T21:01:34.886Z,100896.69
2022-08-17T21:04:08.317Z,100899.50
2022-08-17T21:07:38.250Z,100902.56
2022-08-17T21:10:52.470Z,100913.03
2022-08-17T21:14:23.190Z,100928.78
2022-08-17T21:22:21.226Z,100922.38
2022-08-17T21:25:59.121Z,100920.44
2022-08-17T21:33:51.712Z,100930.53
2022-08-17T21:36:27.489Z,100905.78
2022-08-17T21:39:08.707Z,100912.00
2022-08-17T21:41:48.490Z,100906.94
2022-08-17T21:44:30.507Z,100910.97
2022-08-17T21:47:16.594Z,100902.63
2022-08-17T21:49:45.884Z,100904.00
2022-08-17T21:52:19.637Z,100909.50
2022-08-17T21:54:52.927Z,100911.34
2022-08-17T21:57:24.475Z,100900.16
2022-08-17T21:59:57.858Z,100905.03
2022-08-17T22:02:31.842Z,100896.59
2022-08-17T22:05:04.296Z,100906.56
2022-08-17T22:07:40.139Z,100906.06
2022-08-17T22:10:30.512Z,100902.78
2022-08-17T22:13:16.818Z,100902.97
2022-08-17T22:15:49.531Z,100897.84
2022-08-17T22:18:23.285Z,100900.50
2022-08-17T22:20:54.499Z,100901.31
2022-08-17T22:23:46.433Z,100901.16
2022-08-17T22:26:18.008Z,100904.34
2022-08-17T22:28:50.783Z,100901.03
2022-08-17T22:31:22.015Z,100897.38
2022-08-17T22:34:07.486Z,100894.81
2022-08-17T22:36:38.986Z,100897.13
2022-08-17T22:39:42.934Z,100898.63
2022-08-17T22:42:15.894Z,100893.00
2022-08-17T22:44:51.436Z,100894.66
2022-08-17T22:47:38.734Z,100881.91
2022-08-17T22:50:21.783Z,100879.41
2022-08-17T22:53:17.340Z,100888.75
2022-08-17T22:56:14.749Z,100884.16
2022-08-17T22:59:08.339Z,100884.88
2022-08-17T23:01:39.031Z,100892.50
2022-08-17T23:04:16.072Z,100895.50
2022-08-17T23:06:45.239Z,100894.09
2022-08-17T23:09:14.471Z,100900.69
2022-08-17T23:11:49.872Z,100896.16
2022-08-17T23:14:22.408Z,100895.09
2022-08-17T23:16:52.086Z,100894.63
2022-08-17T23:19:22.616Z,100891.97
2022-08-17T23:21:53.812Z,100891.31
2022-08-17T23:24:27.644Z,100905.72
2022-08-17T23:26:59.261Z,100895.63
2022-08-17T23:29:29.897Z,100902.47
2022-08-17T23:32:01.375Z,100903.97
2022-08-17T23:34:31.200Z,100906.13
2022-08-17T23:37:02.283Z,100907.59
2022-08-17T23:39:31.633Z,100909.59
2022-08-17T23:42:07.883Z,100912.63
2022-08-17T23:44:38.451Z,100914.28
2022-08-17T23:47:08.053Z,100908.44
2022-08-17T23:49:37.569Z,100909.97
2022-08-17T23:52:12.582Z,100906.38
2022-08-17T23:54:47.583Z,100905.06
2022-08-17T23:57:20.850Z,100908.59
